Pagrindinis puslapis
METAR-TAF:

METAR-TAF

Oro uostai :

Elista, Rusija

platuma: 46-22N, ilguma: 044-20E, Aukštis: 150 m

Dabartinis oras

Ataskaita buvo paskelbta 33 minutes, ne 20:30 UTC
Vėjas 6 kt iš Rytų/Pietryčių
Temperatūra 2°C
Drėgmė 100%
Slėgis 1019 hPa
Matomumas: 0200 m

METAR: URWI 152030Z AUTO 12003MPS 0200 // ///002/// 02/02 Q1019 RMK QBB060

Laikas: 01:03 (21:03 UTC)

Prognozė

Ataskaita buvo paskelbta 7 valandos ir 3 minutes, ne 14:00 UTC
Prognozė galioja nuo 15 metu 15 UTC su 15 metu 24 UTC
Vėjas 6 kt iš Rytų/Pietryčių su gūsio iki 17 kt
Matomumas: 0300 m
Apsiniaukę ne aukštis 100 ft
dulksna, rūkas
Laikinai
nuo 15 metu 15 UTC su 15 metu 18 UTC
Vėjas 12 kt iš Rytų/Pietryčių su gūsio iki 23 kt

TAF: URWI 151400Z 1515/1524 11003G09MPS 0300 -DZ FG OVC001 TEMPO 1515/1518 12006G12MPS

Orai ataskaitas ir orų prognozės (METAR, TAF).

turimą stotys yra geltonos ir raudonos taškus žemėlapyje.

Perkelti pele per norėdami pamatyti stoties vardą.

Tada spustelėkite, norėdami matyti oro stebėjimo ir prognozės.

Norėdami pakeisti žemėlapį: spustelėkite ant žalios mygtukų su juodo kryžiaus žemyn,; žalią mygtuką su brūkšneliu, jei norite nutolinti; arba žalių rodyklių gretimoms žemėlapius.


METAR-TAF: